Frolovo, Russia
Current Conditions -  °F | °C
As of 10:30 AM on Tuesday 21 Oct 2014 (Local Time) from URWW Reporting Station
Light Rain Light Rain  
Wind Chill: 41°   Ceiling: 300
Heat Index: 48°   Visibility: 1.8mi
Dew Point: 48°   Wind: 20mph
Humidity: 100%   Direction: 250°WSW
Pressure: 29.65"   Gusts: 29mph
Location:  49.77°N, 43.65°E
Report Text: URWW 210730Z 25009G13MPS 3000 -RA BR OVC003 09/09 Q1004 TEMPO1000 OVC002 RMK OBST OBSC SC057
Loading
Personal Weather Stations






























Interactive Weather Map
Tropical Storm Tracking
New forecast layout! Learn more

10-Day Weather Forecast

Advertisements
Track Severe Weather on mobile